createdAt,value
2023-05-16T00:03:20.951Z,93.40
2023-05-16T00:07:23.644Z,95.69
2023-05-16T00:11:26.366Z,96.92
2023-05-16T00:15:30.796Z,96.16
2023-05-16T00:19:33.439Z,96.00
2023-05-16T00:23:36.150Z,96.95
2023-05-16T00:27:38.774Z,96.81
2023-05-16T00:31:42.930Z,97.38
2023-05-16T00:35:45.641Z,96.76
2023-05-16T00:39:48.276Z,96.64
2023-05-16T00:43:50.883Z,97.45
2023-05-16T00:47:54.985Z,95.96
2023-05-16T00:51:58.452Z,96.16
2023-05-16T00:56:01.112Z,94.89
2023-05-16T01:00:03.870Z,95.85
2023-05-16T01:04:08.950Z,96.18
2023-05-16T01:08:11.667Z,96.60
2023-05-16T01:12:22.614Z,95.80
2023-05-16T01:16:28.418Z,96.01
2023-05-16T01:20:37.018Z,95.36
2023-05-16T01:24:45.270Z,95.60
2023-05-16T01:28:50.352Z,94.35
2023-05-16T01:32:53.076Z,93.94
2023-05-16T01:37:04.410Z,94.41
2023-05-16T01:41:10.184Z,95.39
2023-05-16T01:45:20.064Z,96.74
2023-05-16T01:49:27.777Z,95.77
2023-05-16T01:53:35.091Z,97.82
2023-05-16T01:57:37.982Z,95.12
2023-05-16T02:01:42.076Z,96.52
2023-05-16T02:05:44.789Z,99.25
2023-05-16T02:09:47.505Z,97.60
2023-05-16T02:13:50.173Z,96.15
2023-05-16T02:17:54.400Z,96.90
2023-05-16T02:21:57.256Z,96.98
2023-05-16T02:25:59.962Z,95.18
2023-05-16T02:30:02.630Z,97.83
2023-05-16T02:34:07.233Z,96.26
2023-05-16T02:38:10.162Z,96.53
2023-05-16T02:42:13.042Z,96.06
2023-05-16T02:46:23.254Z,95.73
2023-05-16T02:50:27.539Z,97.91
2023-05-16T02:54:30.221Z,98.66
2023-05-16T02:58:32.823Z,96.81
2023-05-16T03:02:35.463Z,98.10
2023-05-16T03:06:39.470Z,98.60
2023-05-16T03:10:42.215Z,96.18
2023-05-16T03:14:45.304Z,97.99
2023-05-16T03:18:47.906Z,95.17
2023-05-16T03:22:52.183Z,96.99
2023-05-16T03:26:55.108Z,99.36
2023-05-16T03:30:57.709Z,98.39
2023-05-16T03:35:00.531Z,99.52
2023-05-16T03:39:04.806Z,92.83
2023-05-16T03:43:07.403Z,96.38
2023-05-16T03:47:10.060Z,94.80
2023-05-16T03:51:12.937Z,96.13
2023-05-16T03:55:17.067Z,94.33
2023-05-16T03:59:19.824Z,92.95
2023-05-16T04:03:28.414Z,94.24
2023-05-16T04:07:31.290Z,90.51
2023-05-16T04:11:35.361Z,93.64
2023-05-16T04:15:37.944Z,92.08
2023-05-16T04:19:40.900Z,89.71
2023-05-16T04:23:43.577Z,87.87
2023-05-16T04:27:47.573Z,90.90
2023-05-16T04:31:50.333Z,92.04
2023-05-16T04:35:54.700Z,91.67
2023-05-16T04:39:57.345Z,89.62
2023-05-16T04:44:03.528Z,88.46
2023-05-16T04:48:06.620Z,90.44
2023-05-16T04:52:09.985Z,88.91
2023-05-16T04:56:12.677Z,89.38
2023-05-16T05:00:17.700Z,89.13
2023-05-16T05:04:20.655Z,86.87
2023-05-16T05:08:23.469Z,90.94
2023-05-16T05:12:27.135Z,89.37
2023-05-16T05:16:30.952Z,90.65
2023-05-16T05:20:33.558Z,90.71
2023-05-16T05:24:36.368Z,89.68
2023-05-16T05:28:39.396Z,87.66
2023-05-16T05:32:44.008Z,88.87
2023-05-16T05:36:46.662Z,90.59
2023-05-16T05:40:49.587Z,89.33
2023-05-16T05:44:52.283Z,90.31
2023-05-16T05:48:56.334Z,90.14
2023-05-16T05:52:59.004Z,92.86
2023-05-16T05:57:01.706Z,90.77
2023-05-16T06:01:04.469Z,92.76
2023-05-16T06:05:09.755Z,93.13
2023-05-16T06:09:12.703Z,93.41
2023-05-16T06:13:15.569Z,93.02
2023-05-16T06:17:18.359Z,92.85
2023-05-16T06:21:22.480Z,91.54
2023-05-16T06:25:25.373Z,92.28
2023-05-16T06:29:28.165Z,94.98
2023-05-16T06:33:30.867Z,92.36
2023-05-16T06:37:34.835Z,92.95
2023-05-16T06:41:37.515Z,95.35
2023-05-16T06:45:40.528Z,90.91
2023-05-16T06:49:43.177Z,92.99
2023-05-16T06:53:47.193Z,94.77
2023-05-16T06:57:49.959Z,93.57
2023-05-16T07:01:52.973Z,93.10
2023-05-16T07:05:57.249Z,93.29
2023-05-16T07:10:01.373Z,93.77
2023-05-16T07:14:04.108Z,94.85
2023-05-16T07:18:07.014Z,94.24
2023-05-16T07:22:10.285Z,91.51
2023-05-16T07:26:14.460Z,91.63
2023-05-16T07:30:17.816Z,91.44
2023-05-16T07:34:20.700Z,91.22
2023-05-16T07:38:23.379Z,90.54
2023-05-16T07:42:27.493Z,89.33
2023-05-16T07:46:30.465Z,90.57
2023-05-16T07:50:33.283Z,88.66
2023-05-16T07:54:36.674Z,88.44
2023-05-16T07:58:40.941Z,87.56
2023-05-16T08:02:44.597Z,88.37
2023-05-16T08:06:47.708Z,83.67
2023-05-16T08:10:50.420Z,85.41
2023-05-16T08:14:54.568Z,87.65
2023-05-16T08:18:57.373Z,87.63
2023-05-16T08:23:00.127Z,85.13
2023-05-16T08:27:02.869Z,87.32
2023-05-16T08:31:07.438Z,88.04
2023-05-16T08:35:11.095Z,85.61
2023-05-16T08:39:13.888Z,85.68
2023-05-16T08:43:16.754Z,86.70
2023-05-16T08:47:22.803Z,87.35
2023-05-16T08:51:26.826Z,85.42
2023-05-16T08:55:30.074Z,88.57
2023-05-16T08:59:33.123Z,86.71
2023-05-16T09:03:38.253Z,87.80
2023-05-16T09:07:41.658Z,86.90
2023-05-16T09:11:44.458Z,87.24
2023-05-16T09:15:47.931Z,87.61
2023-05-16T09:19:56.575Z,87.52
2023-05-16T09:24:04.872Z,85.77
2023-05-16T09:28:11.894Z,85.41
2023-05-16T09:32:16.631Z,82.64
2023-05-16T09:36:20.658Z,80.24
2023-05-16T09:40:23.740Z,79.30
2023-05-16T09:44:26.494Z,79.31
2023-05-16T09:48:29.384Z,78.85
2023-05-16T09:52:33.580Z,77.11
2023-05-16T09:56:50.029Z,77.33
2023-05-16T10:00:52.736Z,77.64
2023-05-16T10:04:55.400Z,73.58
2023-05-16T10:09:02.823Z,76.07
2023-05-16T10:13:07.250Z,75.01
2023-05-16T10:17:11.848Z,69.15
2023-05-16T10:21:16.360Z,71.22
2023-05-16T10:25:25.651Z,69.01
2023-05-16T10:29:30.603Z,66.39
2023-05-16T10:33:37.008Z,67.58
2023-05-16T10:37:40.117Z,70.25
2023-05-16T10:41:44.542Z,62.75
2023-05-16T10:45:55.655Z,58.42
2023-05-16T10:49:58.517Z,62.33
2023-05-16T10:54:06.383Z,67.97
2023-05-16T10:58:10.402Z,61.83
2023-05-16T11:02:34.865Z,57.27
2023-05-16T11:06:46.676Z,56.24
2023-05-16T11:10:49.550Z,60.30
2023-05-16T11:14:53.729Z,63.48
2023-05-16T11:18:56.952Z,58.95
2023-05-16T11:23:22.424Z,52.85
2023-05-16T11:27:27.227Z,54.72
2023-05-16T11:31:31.337Z,54.31
2023-05-16T11:35:34.548Z,59.87
2023-05-16T11:39:37.369Z,54.19
2023-05-16T11:43:45.356Z,57.77
2023-05-16T11:47:50.670Z,49.51
2023-05-16T11:51:57.466Z,51.50
2023-05-16T11:56:02.194Z,53.10
2023-05-16T12:00:08.089Z,51.65
2023-05-16T12:04:13.051Z,46.61
2023-05-16T12:08:17.368Z,52.60
2023-05-16T12:12:21.539Z,47.65
2023-05-16T12:16:24.545Z,48.99
2023-05-16T12:20:28.655Z,55.61
2023-05-16T12:24:32.275Z,55.69
2023-05-16T12:28:35.657Z,50.64
2023-05-16T12:32:38.737Z,46.47
2023-05-16T12:36:43.419Z,50.68
2023-05-16T12:40:46.720Z,48.69
2023-05-16T12:44:49.397Z,48.21
2023-05-16T12:49:02.830Z,53.27
2023-05-16T12:53:07.703Z,44.89
2023-05-16T12:57:10.770Z,48.03
2023-05-16T13:01:16.355Z,51.54
2023-05-16T13:05:20.509Z,47.26
2023-05-16T13:09:25.108Z,43.40
2023-05-16T13:13:36.059Z,41.71
2023-05-16T13:17:40.757Z,45.88
2023-05-16T13:21:43.450Z,46.45
2023-05-16T13:25:49.330Z,48.91
2023-05-16T13:29:52.346Z,49.05
2023-05-16T13:33:55.104Z,48.65
2023-05-16T13:37:57.784Z,47.53
2023-05-16T13:42:03.157Z,48.94
2023-05-16T13:46:06.089Z,45.83
2023-05-16T13:50:10.483Z,48.42
2023-05-16T13:54:13.263Z,48.68
2023-05-16T13:58:17.393Z,44.19
2023-05-16T14:02:20.114Z,44.83
2023-05-16T14:06:22.786Z,42.03
2023-05-16T14:10:26.535Z,49.70
2023-05-16T14:14:30.849Z,47.04
2023-05-16T14:18:33.574Z,43.93
2023-05-16T14:22:36.324Z,44.49
2023-05-16T14:26:39.110Z,47.33
2023-05-16T14:30:43.309Z,47.87
2023-05-16T14:34:46.547Z,45.41
2023-05-16T14:38:49.430Z,47.45
2023-05-16T14:42:52.200Z,48.43
2023-05-16T14:46:56.312Z,51.99
2023-05-16T14:50:58.970Z,42.25
2023-05-16T14:55:02.036Z,49.67
2023-05-16T14:59:04.591Z,45.05
2023-05-16T15:03:08.794Z,47.05
2023-05-16T15:07:11.796Z,49.00
2023-05-16T15:11:14.940Z,52.57
2023-05-16T15:15:17.825Z,49.57
2023-05-16T15:19:22.063Z,48.15
2023-05-16T15:23:24.776Z,48.01
2023-05-16T15:27:27.456Z,48.39
2023-05-16T15:31:32.094Z,45.85
2023-05-16T15:35:36.330Z,47.30
2023-05-16T15:39:39.050Z,48.07
2023-05-16T15:43:41.998Z,47.19
2023-05-16T15:47:44.727Z,47.31
2023-05-16T15:51:49.239Z,49.21
2023-05-16T15:55:52.236Z,49.17
2023-05-16T15:59:54.904Z,48.13
2023-05-16T16:03:57.871Z,49.99
2023-05-16T16:08:02.056Z,50.12
2023-05-16T16:12:05.123Z,51.90
2023-05-16T16:16:08.273Z,54.65
2023-05-16T16:20:11.830Z,54.65
2023-05-16T16:24:15.940Z,51.92
2023-05-16T16:28:19.635Z,51.70
2023-05-16T16:32:23.447Z,53.53
2023-05-16T16:36:26.460Z,49.06
2023-05-16T16:40:31.740Z,51.47
2023-05-16T16:44:34.866Z,51.39
2023-05-16T16:48:37.800Z,57.64
2023-05-16T16:52:40.583Z,49.48
2023-05-16T16:56:46.007Z,57.12
2023-05-16T17:00:49.097Z,55.86
2023-05-16T17:04:52.061Z,53.29
2023-05-16T17:08:54.736Z,55.46
2023-05-16T17:13:05.905Z,51.65
2023-05-16T17:17:08.700Z,56.99
2023-05-16T17:21:12.903Z,53.62
2023-05-16T17:25:15.764Z,57.29
2023-05-16T17:29:20.116Z,51.37
2023-05-16T17:33:22.981Z,54.17
2023-05-16T17:37:26.522Z,51.72
2023-05-16T17:41:29.197Z,50.57
2023-05-16T17:45:33.671Z,51.21
2023-05-16T17:49:36.428Z,52.80
2023-05-16T17:53:39.226Z,51.40
2023-05-16T17:57:41.914Z,51.57
2023-05-16T18:01:46.366Z,55.62
2023-05-16T18:05:49.720Z,55.54
2023-05-16T18:09:53.700Z,58.04
2023-05-16T18:13:56.483Z,53.01
2023-05-16T18:18:00.692Z,52.24
2023-05-16T18:22:06.983Z,53.72
2023-05-16T18:26:10.153Z,56.73
2023-05-16T18:30:13.760Z,57.48
2023-05-16T18:34:17.840Z,55.18
2023-05-16T18:38:31.262Z,59.28
2023-05-16T18:42:35.046Z,58.25
2023-05-16T18:46:37.729Z,58.12
2023-05-16T18:50:41.906Z,60.54
2023-05-16T18:54:44.701Z,62.31
2023-05-16T18:58:47.850Z,63.37
2023-05-16T19:02:51.142Z,64.27
2023-05-16T19:06:56.406Z,61.31
2023-05-16T19:10:59.458Z,59.97
2023-05-16T19:15:02.125Z,60.75
2023-05-16T19:19:07.786Z,62.63
2023-05-16T19:23:12.105Z,66.85
2023-05-16T19:27:14.912Z,70.28
2023-05-16T19:31:17.741Z,72.11
2023-05-16T19:35:20.369Z,70.84
2023-05-16T19:39:24.445Z,72.23
2023-05-16T19:43:27.170Z,68.50
2023-05-16T19:47:29.899Z,71.86
2023-05-16T19:55:56.824Z,70.15
2023-05-16T19:59:59.500Z,73.71
2023-05-16T20:04:05.411Z,73.05
2023-05-16T20:08:09.433Z,78.34
2023-05-16T20:12:13.737Z,75.29
2023-05-16T20:16:17.771Z,78.90
2023-05-16T20:20:20.409Z,81.99
2023-05-16T20:24:23.097Z,81.77
2023-05-16T20:28:27.164Z,81.20
2023-05-16T20:32:29.894Z,80.92
2023-05-16T20:36:32.690Z,85.15
2023-05-16T20:40:35.363Z,83.21
2023-05-16T20:44:39.690Z,84.26
2023-05-16T20:48:42.367Z,85.42
2023-05-16T20:52:45.063Z,86.81
2023-05-16T20:56:47.822Z,86.85
2023-05-16T21:00:52.374Z,85.44
2023-05-16T21:04:56.070Z,86.03
2023-05-16T21:08:58.754Z,84.03
2023-05-16T21:13:01.460Z,87.71
2023-05-16T21:17:05.780Z,87.69
2023-05-16T21:21:08.430Z,87.55
2023-05-16T21:25:11.326Z,89.05
2023-05-16T21:29:14.007Z,87.23
2023-05-16T21:33:18.181Z,85.47
2023-05-16T21:37:21.545Z,86.15
2023-05-16T21:41:24.328Z,88.53
2023-05-16T21:45:27.220Z,90.59
2023-05-16T21:49:32.909Z,90.14
2023-05-16T21:53:35.664Z,89.06
2023-05-16T21:57:38.650Z,91.43
2023-05-16T22:01:41.313Z,90.94
2023-05-16T22:05:45.999Z,91.65
2023-05-16T22:09:50.836Z,93.40
2023-05-16T22:13:53.579Z,92.78
2023-05-16T22:17:57.513Z,94.25
2023-05-16T22:22:01.667Z,90.34
2023-05-16T22:26:04.764Z,92.08
2023-05-16T22:30:08.815Z,93.73
2023-05-16T22:34:11.560Z,95.92
2023-05-16T22:38:15.762Z,91.93
2023-05-16T22:42:18.376Z,93.48
2023-05-16T22:46:21.178Z,89.78
2023-05-16T22:50:23.858Z,93.18
2023-05-16T22:54:27.856Z,90.35
2023-05-16T22:58:30.679Z,92.90
2023-05-16T23:02:33.404Z,88.03
2023-05-16T23:06:36.160Z,93.49
2023-05-16T23:10:40.384Z,89.09
2023-05-16T23:14:43.038Z,89.27
2023-05-16T23:18:45.823Z,88.33
2023-05-16T23:22:48.555Z,91.68
2023-05-16T23:26:52.663Z,91.11
2023-05-16T23:30:55.379Z,93.65
2023-05-16T23:34:58.016Z,93.91
2023-05-16T23:39:00.677Z,94.01
2023-05-16T23:43:04.682Z,95.55
2023-05-16T23:47:07.538Z,94.70
2023-05-16T23:51:10.178Z,96.43
2023-05-16T23:55:13.525Z,95.06
2023-05-16T23:59:18.912Z,93.65
